Hozan Maru — JJ4010 — position and weather

sailwx.info

Track history (hours):
 
Tides and Currents Weather Stations Pressure Air Temp Water Temp Dewpoint Dewpoint Depression Visibility Wind Speed Wind Dir Waves Ship Positions

Hozan Maru

Last reported at 2016-May-27 08:07 UTC. Time now 2016-May-27 12:20 UTC.
Position N 34°40' E 135°27'.

Length 38 m; draft 3.6 m.

Type: Tug. MMSI: 431401501.

Date/timePositionNaut miles runAvg speedWind from/ knotsBaromVisibWave heightAir tempDewpointWater temp
2016-May-27 08:07N 34°40' E 135°27'2 3.7
2016-May-27 07:33N 34°40' E 135°25'1 1.4
2016-May-27 06:33N 34°38' E 135°24'6 5.9
2016-May-27 05:33N 34°33' E 135°27'0 0.0
2016-May-27 04:33N 34°33' E 135°27'0 0.0
2016-May-27 03:33N 34°33' E 135°27'2 1.6
2016-May-27 02:33N 34°33' E 135°25'4 4.4
2016-May-27 01:33N 34°38' E 135°23'4 0.2
2016-May-26 04:15N 34°40' E 135°27'710.4
2016-May-26 03:33N 34°39' E 135°18'0 0.5
2016-May-26 02:33N 34°39' E 135°18'0 0.1
2016-May-26 01:33N 34°39' E 135°18'0 0.1
2016-May-26 00:33N 34°39' E 135°18'1 0.8
2016-May-25 23:33N 34°39' E 135°19'3 0.1
2016-May-25 03:33N 34°40' E 135°22'4 3.8
2016-May-25 02:33N 34°40' E 135°17'0 0.0
2016-May-25 01:34N 34°40' E 135°18'0 0.2
2016-May-25 00:33N 34°40' E 135°18'0 0.4
2016-May-24 23:33N 34°40' E 135°17'6 6.1
2016-May-24 22:33N 34°39' E 135°25'1 0.1
2016-May-24 02:32N 34°40' E 135°26'1212.3
2016-May-24 01:33N 34°37' E 135°12'1412.1
2016-May-24 00:25N 34°37' E 134°55'7 0.3
2016-May-22 23:28N 34°40' E 134°48'6 6.1
2016-May-22 22:27N 34°37' E 134°54'1213.7
2016-May-22 21:33N 34°37' E 135°09'1312.7
2016-May-22 20:33N 34°39' E 135°24'3 0.1
2016-May-21 07:32N 34°40' E 135°27'3 3.1
2016-May-21 06:33N 34°38' E 135°25'3 0.2
2016-May-20 11:31N 34°40' E 135°27'8 7.8
2016-May-20 10:33N 34°39' E 135°18'0 0.1
2016-May-20 09:33N 34°39' E 135°18'0 0.2
2016-May-20 08:33N 34°39' E 135°18'0 0.2
2016-May-20 07:33N 34°39' E 135°18'0 0.2
2016-May-20 06:33N 34°39' E 135°18'0 0.3
2016-May-20 05:33N 34°39' E 135°18'0 0.4
2016-May-20 04:32N 34°39' E 135°18'7 7.6
2016-May-20 03:33N 34°40' E 135°27'0 0.0
2016-May-20 02:33N 34°40' E 135°27'0 0.0
2016-May-20 01:30N 34°40' E 135°27'0 0.0
2016-May-20 00:33N 34°40' E 135°27'0 0.0
2016-May-19 23:32N 34°40' E 135°27'1 0.8
2016-May-19 22:33N 34°40' E 135°26'1 1.2
2016-May-19 21:33N 34°39' E 135°25'2 0.1
2016-May-18 10:18N 34°40' E 135°27'811.3
2016-May-18 09:33N 34°39' E 135°17'9 8.7
2016-May-18 08:33N 34°38' E 135°07'1611.2
2016-May-18 07:07N 34°40' E 134°47'  
Track history (hours):
 
Tides and Currents Weather Stations Pressure Air Temp Water Temp Dewpoint Dewpoint Depression Visibility Wind Speed Wind Dir Waves Ship Positions

Hozan Maru

Last reported at 2016-May-27 08:07 UTC. Time now 2016-May-27 12:20 UTC.
Position N 34°40' E 135°27'.

Length 38 m; draft 3.6 m.

Type: Tug. MMSI: 431401501.

Date/timePositionNaut miles runAvg speedWind from/ knotsBaromVisibWave heightAir tempDewpointWater temp
2016-May-27 08:07N 34°40' E 135°27'2 3.7
2016-May-27 07:33N 34°40' E 135°25'1 1.4
2016-May-27 06:33N 34°38' E 135°24'6 5.9
2016-May-27 05:33N 34°33' E 135°27'0 0.0
2016-May-27 04:33N 34°33' E 135°27'0 0.0
2016-May-27 03:33N 34°33' E 135°27'2 1.6
2016-May-27 02:33N 34°33' E 135°25'4 4.4
2016-May-27 01:33N 34°38' E 135°23'4 0.2
2016-May-26 04:15N 34°40' E 135°27'710.4
2016-May-26 03:33N 34°39' E 135°18'0 0.5
2016-May-26 02:33N 34°39' E 135°18'0 0.1
2016-May-26 01:33N 34°39' E 135°18'0 0.1
2016-May-26 00:33N 34°39' E 135°18'1 0.8
2016-May-25 23:33N 34°39' E 135°19'3 0.1
2016-May-25 03:33N 34°40' E 135°22'4 3.8
2016-May-25 02:33N 34°40' E 135°17'0 0.0
2016-May-25 01:34N 34°40' E 135°18'0 0.2
2016-May-25 00:33N 34°40' E 135°18'0 0.4
2016-May-24 23:33N 34°40' E 135°17'6 6.1
2016-May-24 22:33N 34°39' E 135°25'1 0.1
2016-May-24 02:32N 34°40' E 135°26'1212.3
2016-May-24 01:33N 34°37' E 135°12'1412.1
2016-May-24 00:25N 34°37' E 134°55'7 0.3
2016-May-22 23:28N 34°40' E 134°48'6 6.1
2016-May-22 22:27N 34°37' E 134°54'1213.7
2016-May-22 21:33N 34°37' E 135°09'1312.7
2016-May-22 20:33N 34°39' E 135°24'3 0.1
2016-May-21 07:32N 34°40' E 135°27'3 3.1
2016-May-21 06:33N 34°38' E 135°25'3 0.2
2016-May-20 11:31N 34°40' E 135°27'8 7.8
2016-May-20 10:33N 34°39' E 135°18'0 0.1
2016-May-20 09:33N 34°39' E 135°18'0 0.2
2016-May-20 08:33N 34°39' E 135°18'0 0.2
2016-May-20 07:33N 34°39' E 135°18'0 0.2
2016-May-20 06:33N 34°39' E 135°18'0 0.3
2016-May-20 05:33N 34°39' E 135°18'0 0.4
2016-May-20 04:32N 34°39' E 135°18'7 7.6
2016-May-20 03:33N 34°40' E 135°27'0 0.0
2016-May-20 02:33N 34°40' E 135°27'0 0.0
2016-May-20 01:30N 34°40' E 135°27'0 0.0
2016-May-20 00:33N 34°40' E 135°27'0 0.0
2016-May-19 23:32N 34°40' E 135°27'1 0.8
2016-May-19 22:33N 34°40' E 135°26'1 1.2
2016-May-19 21:33N 34°39' E 135°25'2 0.1
2016-May-18 10:18N 34°40' E 135°27'811.3
2016-May-18 09:33N 34°39' E 135°17'9 8.7
2016-May-18 08:33N 34°38' E 135°07'1611.2
2016-May-18 07:07N 34°40' E 134°47'  

Dump ship's entire track history